Airfield :
LOGIN :

Register | Disclaimer

   EN    FR    IT 

 










Legend :    VFR   Marginal VFR   IFR   Intensive IFR   Very Intensive IFR
Visi :
Ceiling :
>= 8 km
>= 3000ft
5 to 8 km
1000 to 3000 ft
1500m to 5 km
500 to 1000 ft
800 to 1500m
200 to 500 ft
< 800m
< 200 ft
Symbols :   Thunderstorms  Fog  Heavy snow  Heavy precipitations  Wind > 20 kt
SIGMETs :     Misc.  Thunderstorms  Icing  Turbulence  Mountain Waves  Volcanic Ashes







- Airport Elevation : 24 ft
- IATA code : SGD


EKSB - Sonderborg

CURRENT METAR :
  • 200850Z 19008KT 6000 BKN008 02/01 Q1002 R88/620550

EXPIRED METARs :
  • 200751Z 17006KT 150V210 2000 -SHRASN BKN005 01/01 Q1002 R88///3092
  • 200720Z 19005KT 150V220 0700 R14/P1500D R32/P1500D SHSN BKN003 01/00 Q1002 R88/590392
  • 200650Z 20007KT 1200 R14/P1500N R32/P1500N SHRASN BKN004 01/01 Q1002
  • 200621Z 19006KT 160V220 7000 BKN007 02/01 Q1002

TAF TAF EKSB
Valid from the 20 at 09:00 until the 20 at 17:00 UTC


200857Z 2009/2017 19010KT 8000 SCT006 BKN010
TEMPO 2009/2017 2000 -SHSNRA BR BKN006 SCT015CB
No reported NOTAMs for that airfield.



MET'MAP, your aeronautical weather chart ! - Copyright ORBIFLY December 2007 - Disclaimer

ORBIFLY MET'MAP TEAM :

Programming & Development : Alexandra Zaïnal
Concept & Development : Baudouin d'Aumeries
Co-Development & Prog : Marc-Olivier Méhu
Technical & hardware support : Manuel Goepfert

Contact : metmap@orbifly.com




SOURCES & CREDITS :

   NOAA